Terminal Aerodrome Forecast
Issued by NWS

Current Version | Previous Version | Graphics & Text | Print | Product List | Glossary On
Versions: 1 2 3 4 5 6 7 8 9 10 11 12 13 14 15 16 17 18 19 20 21 22 23 24 25 26 27 28 29 30 31 32 33 34 35
000
FTUS41 KRNK 281128
TAFLWB
TAF
KLWB 281128Z 2812/2912 00000KT 1/4SM FG VV001
     FM281330 00000KT P6SM SCT015 BKN100
     FM281500 VRB03KT P6SM VCSH BKN035 BKN100
     FM281700 VRB04KT P6SM VCTS BKN035CB OVC090
     FM290200 00000KT 4SM BR VCSH SCT035 SCT090 OVC250
     FM290700 00000KT 3SM BR SCT001 SCT090 BKN250
      TEMPO 2908/2912 1/4SM FG VV001=

USA.gov is the U.S. government's official web portal to all federal, state and local government web resources and services.